Wednesday, May 23, 2018, 12:27 AM CDT
Back to Local

KMDW, Chicago Midway Airport

Location: Chicago, IL, United States Lat: 41.783
Local Time: 12:27 AM CDT ( 5:27 GMT) Lon: -87.75
Time Zone: US/Central Elev: 620 ft

Show me the last for .
Show Decoded

2018-05-22 23:53 METAR KMDW 230453Z 14003KT 10SM CLR 12/10 A3010 RMK AO2 SLP191 T01220100 =
2018-05-22 22:53 METAR KMDW 230353Z 13003KT 10SM CLR 12/10 A3009 RMK AO2 SLP189 T01220100 =
2018-05-22 21:53 METAR KMDW 230253Z 12004KT 10SM CLR 13/11 A3009 RMK AO2 SLP189 T01280106 53016 =
2018-05-22 20:53 METAR KMDW 230153Z 10005KT 10SM FEW250 13/11 A3008 RMK AO2 SLP184 T01280106 =
2018-05-22 19:53 METAR KMDW 230053Z 06006KT 10SM FEW250 14/11 A3006 RMK AO2 SLP177 T01440106 =
2018-05-22 18:53 METAR KMDW 222353Z 11006KT 10SM FEW032 BKN250 16/12 A3004 RMK AO2 SLP172
                 T01560117 10183 20156 58001 =
2018-05-22 17:53 METAR KMDW 222253Z 07006KT 9SM FEW015 BKN032 16/12 A3005 RMK AO2 SLP173
                 T01610117 =
2018-05-22 16:53 METAR KMDW 222153Z 08007KT 9SM FEW032 OVC039 17/12 A3005 RMK AO2 SLP176
                 T01670122 =
2018-05-22 15:53 METAR KMDW 222053Z 10006KT 9SM FEW029 BKN042 17/12 A3005 RMK AO2 SLP173
                 T01720122 58004 =
2018-05-22 14:53 METAR KMDW 221953Z VRB05KT 7SM FEW021 OVC036 18/13 A3006 RMK AO2 SLP177
                 T01780133 =
2018-05-22 13:53 METAR KMDW 221853Z 03008KT 7SM BKN021 OVC033 17/13 A3006 RMK AO2 SLP179
                 T01670128 =
2018-05-22 12:53 METAR KMDW 221753Z 08009KT 8SM SCT021 OVC027 17/13 A3006 RMK AO2 SLP177
                 T01720128 10194 20139 50003 =
2018-05-22 12:21 METAR KMDW 221721Z 36005KT 8SM BKN015 OVC026 19/16 A3006 RMK AO2 T01890156 =
2018-05-22 11:53 METAR KMDW 221653Z 33006KT 5SM BR BKN013 OVC026 19/16 A3006 RMK AO2 SLP177
                 T01890156 =
2018-05-22 11:18 METAR KMDW 221618Z 00000KT 4SM BR BKN011 OVC018 17/15 A3006 RMK AO2 T01720150 =
2018-05-22 10:53 METAR KMDW 221553Z 00000KT 4SM BR BKN008 OVC016 17/14 A3005 RMK AO2 SLP176
                 T01670144 =
2018-05-22 09:53 METAR KMDW 221453Z 00000KT 4SM BR OVC006 15/14 A3005 RMK AO2 SLP174 T01500139
                 53017 =
2018-05-22 08:53 METAR KMDW 221353Z 04004KT 3SM BR OVC005 15/14 A3003 RMK AO2 SLP166 T01500139 =
2018-05-22 08:31 METAR KMDW 221331Z 07003KT 2SM BR OVC005 14/14 A3002 RMK AO2 T01440139 =
2018-05-22 07:53 METAR KMDW 221253Z 02004KT 1 1/2SM BR BKN003 OVC020 14/14 A3002 RMK AO2 SLP162
                 T01440139 =
2018-05-22 07:24 METAR KMDW 221224Z 02003KT 1 1/4SM BR OVC002 14/14 A3001 RMK AO2 T01440139 =
2018-05-22 07:15 METAR KMDW 221215Z 00000KT 3/4SM R31C/4500VP6000FT BR OVC002 14/14 A3000 RMK AO2
                 T01390139 =
2018-05-22 06:53 METAR KMDW 221153Z 00000KT 1/4SM R31C/1800V2800FT FG VV002 14/14 A3000 RMK AO2
                 SLP156 60005 70124 T01390139 10144 20133 53009 =
2018-05-22 06:28 METAR KMDW 221128Z 36004KT 1/2SM R31C/2600VP6000FT FG OVC002 14/13 A3000 RMK AO2
                 T01390133 =
2018-05-22 06:21 METAR KMDW 221121Z 01003KT 3/4SM R31C/P6000FT BR OVC002 13/13 A2999 RMK AO2
                 T01330133 =
2018-05-22 06:12 METAR KMDW 221112Z 36003KT 3/4SM R31C/P6000FT BR OVC004 14/13 A2999 RMK AO2
                 T01390133 =
2018-05-22 05:53 METAR KMDW 221053Z 33004KT 1SM R31C/P6000FT BR OVC004 13/13 A2999 RMK AO2 SLP155
                 T01330133 =
2018-05-22 04:53 METAR KMDW 220953Z 01004KT 1 1/2SM BR OVC003 13/13 A2998 RMK AO2 DZB12E27 SLP149
                 P0000 T01330133 =
2018-05-22 03:53 METAR KMDW 220853Z 36006KT 1 1/4SM BR OVC004 14/13 A2997 RMK AO2 SLP148 60005
                 T01390133 50005 =
2018-05-22 03:51 METAR KMDW 220851Z 36006KT 1 1/4SM BR OVC004 14/13 A2997 RMK AO2 =
2018-05-22 02:53 METAR KMDW 220753Z 10003KT 1 1/4SM BR BKN005 OVC037 14/14 A2996 RMK AO2 RAB05E52
                 SLP144 P0005 T01390139 =
2018-05-22 02:39 METAR KMDW 220739Z 19005KT 1SM R31C/P6000FT -RA BR BKN005 OVC037 14/13 A2998 RMK
                 AO2 RAB05 P0003 T01390133 =
2018-05-22 01:53 METAR KMDW 220653Z 04005KT 1 1/2SM BR OVC004 14/14 A2996 RMK AO2 SLP143
                 T01390139 =
2018-05-22 00:53 METAR KMDW 220553Z 00000KT 1 3/4SM BR OVC004 14/14 A2997 RMK AO2 SLP148
                 T01390139 10183 20139 401830100 58005 =

Support USWX by starting your Amazon purchase here.